createdAt,value
2019-02-21T00:01:24.273Z,15.03
2019-02-21T00:03:53.420Z,15.33
2019-02-21T00:06:22.521Z,13.90
2019-02-21T00:08:51.689Z,13.23
2019-02-21T00:11:20.791Z,13.37
2019-02-21T00:13:49.941Z,14.63
2019-02-21T00:16:19.086Z,14.63
2019-02-21T00:18:48.235Z,13.77
2019-02-21T00:21:17.436Z,13.47
2019-02-21T00:23:46.545Z,12.93
2019-02-21T00:26:15.859Z,13.13
2019-02-21T00:28:45.027Z,12.73
2019-02-21T00:31:14.203Z,12.93
2019-02-21T00:33:43.701Z,13.03
2019-02-21T00:36:12.859Z,13.77
2019-02-21T00:38:41.953Z,13.77
2019-02-21T00:41:11.130Z,12.00
2019-02-21T00:43:41.097Z,14.67
2019-02-21T00:46:10.188Z,12.93
2019-02-21T00:48:39.285Z,13.40
2019-02-21T00:51:08.449Z,13.17
2019-02-21T00:53:37.616Z,13.80
2019-02-21T00:56:06.786Z,13.57
2019-02-21T00:58:35.940Z,13.57
2019-02-21T01:01:05.543Z,12.87
2019-02-21T01:03:34.697Z,12.50
2019-02-21T01:06:03.810Z,13.70
2019-02-21T01:08:32.946Z,12.73
2019-02-21T01:11:02.104Z,12.60
2019-02-21T01:13:31.237Z,13.10
2019-02-21T01:16:00.380Z,12.57
2019-02-21T01:18:29.531Z,12.67
2019-02-21T01:20:58.685Z,12.57
2019-02-21T01:23:28.061Z,13.27
2019-02-21T01:25:57.223Z,13.10
2019-02-21T01:28:26.357Z,12.83
2019-02-21T01:30:57.193Z,12.40
2019-02-21T01:33:26.355Z,12.60
2019-02-21T01:35:55.512Z,13.43
2019-02-21T01:38:24.613Z,13.43
2019-02-21T01:40:54.145Z,13.50
2019-02-21T01:43:23.353Z,13.53
2019-02-21T01:45:52.499Z,12.90
2019-02-21T01:48:22.001Z,12.67
2019-02-21T01:50:51.175Z,13.73
2019-02-21T01:53:20.321Z,12.03
2019-02-21T01:55:49.423Z,14.20
2019-02-21T01:58:18.739Z,14.17
2019-02-21T02:00:47.875Z,13.10
2019-02-21T02:03:17.013Z,14.03
2019-02-21T02:05:46.122Z,14.10
2019-02-21T02:08:15.281Z,14.23
2019-02-21T02:10:44.715Z,14.37
2019-02-21T02:13:24.218Z,15.27
2019-02-21T02:15:44.711Z,13.73
2019-02-21T02:18:14.177Z,14.73
2019-02-21T02:20:43.300Z,13.63
2019-02-21T02:23:12.418Z,14.77
2019-02-21T02:25:41.912Z,14.37
2019-02-21T02:28:11.016Z,14.77
2019-02-21T02:30:40.180Z,13.90
2019-02-21T02:33:09.368Z,13.73
2019-02-21T02:35:38.536Z,14.13
2019-02-21T02:38:07.631Z,13.33
2019-02-21T02:40:36.781Z,14.30
2019-02-21T02:43:05.895Z,12.80
2019-02-21T02:45:35.031Z,14.50
2019-02-21T02:48:04.174Z,14.43
2019-02-21T02:50:33.675Z,16.37
2019-02-21T02:53:02.826Z,15.13
2019-02-21T02:55:31.961Z,14.10
2019-02-21T02:58:01.115Z,14.97
2019-02-21T03:00:30.255Z,14.80
2019-02-21T03:02:59.443Z,15.13
2019-02-21T03:05:28.608Z,15.23
2019-02-21T03:07:57.698Z,15.27
2019-02-21T03:10:26.850Z,15.50
2019-02-21T03:12:55.979Z,16.37
2019-02-21T03:15:25.120Z,17.43
2019-02-21T03:17:54.218Z,15.70
2019-02-21T03:20:23.374Z,15.03
2019-02-21T03:22:52.495Z,16.30
2019-02-21T03:25:21.658Z,16.00
2019-02-21T03:27:50.775Z,16.00
2019-02-21T03:30:19.912Z,17.20
2019-02-21T03:32:49.024Z,17.40
2019-02-21T03:35:18.162Z,16.37
2019-02-21T03:37:47.266Z,16.50
2019-02-21T03:40:16.444Z,16.97
2019-02-21T03:42:45.552Z,17.33
2019-02-21T03:45:14.797Z,16.20
2019-02-21T03:47:43.947Z,16.83
2019-02-21T03:50:13.625Z,17.33
2019-02-21T03:52:42.766Z,16.37
2019-02-21T03:55:11.897Z,17.20
2019-02-21T03:57:41.049Z,16.83
2019-02-21T04:00:10.289Z,16.17
2019-02-21T04:02:39.513Z,16.70
2019-02-21T04:05:08.851Z,17.80
2019-02-21T04:07:38.010Z,16.57
2019-02-21T04:10:07.424Z,16.17
2019-02-21T04:12:36.568Z,17.20
2019-02-21T04:15:06.122Z,16.67
2019-02-21T04:17:35.318Z,16.80
2019-02-21T04:20:04.609Z,17.77
2019-02-21T04:22:33.737Z,16.70
2019-02-21T04:25:02.915Z,17.77
2019-02-21T04:27:32.099Z,17.13
2019-02-21T04:30:01.223Z,17.87
2019-02-21T04:32:30.364Z,16.67
2019-02-21T04:34:59.478Z,17.10
2019-02-21T04:37:28.627Z,16.97
2019-02-21T04:39:57.843Z,17.27
2019-02-21T04:42:26.999Z,17.47
2019-02-21T04:44:56.116Z,18.53
2019-02-21T04:47:25.620Z,16.43
2019-02-21T04:49:54.735Z,17.77
2019-02-21T04:52:23.967Z,17.13
2019-02-21T04:54:53.643Z,16.50
2019-02-21T04:57:22.818Z,16.40
2019-02-21T04:59:51.928Z,17.60
2019-02-21T05:02:29.260Z,18.80
2019-02-21T05:04:51.906Z,19.87
2019-02-21T05:07:21.048Z,32.27
2019-02-21T05:09:58.060Z,20.57
2019-02-21T05:12:21.413Z,19.93
2019-02-21T05:14:50.628Z,20.87
2019-02-21T05:17:19.776Z,19.80
2019-02-21T05:19:48.887Z,17.83
2019-02-21T05:22:18.270Z,17.80
2019-02-21T05:24:47.386Z,16.77
2019-02-21T05:27:20.271Z,17.27
2019-02-21T05:29:49.762Z,16.57
2019-02-21T05:32:41.198Z,17.20
2019-02-21T05:35:31.128Z,16.30
2019-02-21T05:38:09.167Z,16.13
2019-02-21T05:40:48.766Z,16.97
2019-02-21T05:43:37.362Z,17.03
2019-02-21T05:46:37.940Z,18.20
2019-02-21T05:49:22.185Z,17.43
2019-02-21T05:52:05.715Z,19.47
2019-02-21T05:54:53.487Z,19.40
2019-02-21T05:57:40.431Z,17.93
2019-02-21T06:00:36.886Z,18.03
2019-02-21T06:03:24.587Z,19.17
2019-02-21T06:06:18.499Z,17.37
2019-02-21T06:09:00.265Z,17.47
2019-02-21T06:11:47.075Z,16.67
2019-02-21T06:14:38.302Z,17.03
2019-02-21T06:17:24.358Z,17.83
2019-02-21T06:19:59.707Z,18.73
2019-02-21T06:22:41.060Z,19.43
2019-02-21T06:25:30.605Z,18.33
2019-02-21T06:28:05.254Z,19.73
2019-02-21T06:30:44.218Z,19.00
2019-02-21T06:33:13.378Z,19.17
2019-02-21T06:35:43.014Z,18.70
2019-02-21T06:38:12.143Z,18.57
2019-02-21T06:40:41.242Z,17.53
2019-02-21T06:43:10.667Z,18.30
2019-02-21T06:45:39.831Z,18.37
2019-02-21T06:48:09.401Z,18.00
2019-02-21T06:50:38.553Z,17.33
2019-02-21T06:53:08.141Z,17.10
2019-02-21T06:55:37.408Z,35.50
2019-02-21T06:58:06.548Z,17.87
2019-02-21T07:00:35.709Z,19.07
2019-02-21T07:03:15.109Z,18.33
2019-02-21T07:05:37.004Z,19.43
2019-02-21T07:08:08.741Z,18.77
2019-02-21T07:10:37.378Z,18.83
2019-02-21T07:13:06.507Z,18.37
2019-02-21T07:15:35.739Z,18.30
2019-02-21T07:18:04.914Z,18.27
2019-02-21T07:20:34.037Z,18.10
2019-02-21T07:23:03.190Z,18.33
2019-02-21T07:25:39.452Z,18.73
2019-02-21T07:28:11.650Z,17.70
2019-02-21T07:30:39.674Z,19.50
2019-02-21T07:33:08.850Z,19.77
2019-02-21T07:35:38.630Z,19.33
2019-02-21T07:38:07.759Z,19.80
2019-02-21T07:40:36.875Z,19.90
2019-02-21T07:43:06.021Z,20.00
2019-02-21T07:45:36.304Z,21.53
2019-02-21T07:48:05.745Z,19.47
2019-02-21T07:50:35.005Z,19.57
2019-02-21T07:53:04.448Z,19.63
2019-02-21T07:55:33.580Z,19.27
2019-02-21T07:58:03.979Z,25.70
2019-02-21T08:00:33.344Z,21.57
2019-02-21T08:03:02.483Z,19.77
2019-02-21T08:05:31.992Z,20.43
2019-02-21T08:08:01.105Z,19.80
2019-02-21T08:10:33.507Z,18.97
2019-02-21T08:13:01.167Z,26.40
2019-02-21T08:15:30.490Z,19.97
2019-02-21T08:17:59.604Z,19.70
2019-02-21T08:20:33.990Z,19.10
2019-02-21T08:22:59.628Z,19.30
2019-02-21T08:25:28.877Z,19.83
2019-02-21T08:27:57.998Z,19.67
2019-02-21T08:30:29.169Z,20.50
2019-02-21T08:33:25.913Z,21.03
2019-02-21T08:35:57.732Z,20.27
2019-02-21T08:38:25.920Z,20.73
2019-02-21T08:40:57.067Z,21.10
2019-02-21T08:43:25.949Z,20.93
2019-02-21T08:45:57.448Z,20.57
2019-02-21T08:48:25.917Z,20.90
2019-02-21T08:50:55.101Z,21.13
2019-02-21T08:53:24.215Z,20.50
2019-02-21T08:55:55.889Z,21.17
2019-02-21T08:58:24.131Z,21.00
2019-02-21T09:00:54.470Z,21.43
2019-02-21T09:03:23.732Z,20.70
2019-02-21T09:05:52.873Z,21.47
2019-02-21T09:08:32.706Z,19.83
2019-02-21T09:10:52.846Z,21.03
2019-02-21T09:13:23.910Z,20.63
2019-02-21T09:15:52.814Z,21.50
2019-02-21T09:18:21.928Z,19.97
2019-02-21T09:20:50.996Z,19.97
2019-02-21T09:23:20.149Z,19.60
2019-02-21T09:25:49.688Z,21.13
2019-02-21T09:28:18.900Z,19.50
2019-02-21T09:30:47.981Z,19.40
2019-02-21T09:33:18.997Z,20.43
2019-02-21T09:35:47.953Z,19.80
2019-02-21T09:38:17.428Z,20.30
2019-02-21T09:40:46.554Z,22.07
2019-02-21T09:43:15.656Z,18.70
2019-02-21T09:45:44.782Z,19.90
2019-02-21T09:48:13.886Z,20.43
2019-02-21T09:50:43.053Z,19.57
2019-02-21T09:53:12.163Z,19.37
2019-02-21T09:55:41.288Z,20.57
2019-02-21T09:58:10.841Z,21.57
2019-02-21T10:00:39.980Z,25.87
2019-02-21T10:03:09.084Z,19.60
2019-02-21T10:05:38.221Z,19.60
2019-02-21T10:08:07.324Z,20.50
2019-02-21T10:10:36.567Z,20.30
2019-02-21T10:13:05.643Z,20.40
2019-02-21T10:15:34.813Z,20.67
2019-02-21T10:18:03.897Z,19.47
2019-02-21T10:20:33.052Z,18.83
2019-02-21T10:23:02.152Z,19.33
2019-02-21T10:25:31.401Z,20.33
2019-02-21T10:28:00.611Z,20.27
2019-02-21T10:30:29.741Z,20.57
2019-02-21T10:32:58.862Z,19.57
2019-02-21T10:35:27.991Z,20.03
2019-02-21T10:37:57.089Z,19.73
2019-02-21T10:40:26.198Z,19.73
2019-02-21T10:42:55.342Z,18.67
2019-02-21T10:45:24.899Z,18.80
2019-02-21T10:47:54.051Z,17.77
2019-02-21T10:50:23.311Z,17.77
2019-02-21T10:52:52.434Z,17.00
2019-02-21T10:55:21.539Z,16.00
2019-02-21T10:57:50.679Z,15.60
2019-02-21T11:00:22.337Z,16.53
2019-02-21T11:02:51.451Z,14.97
2019-02-21T11:05:20.549Z,15.30
2019-02-21T11:07:49.909Z,14.90
2019-02-21T11:10:22.151Z,14.90
2019-02-21T11:12:51.327Z,14.00
2019-02-21T11:15:21.170Z,13.43
2019-02-21T11:17:50.499Z,15.17
2019-02-21T11:20:19.602Z,13.57
2019-02-21T11:22:48.753Z,14.00
2019-02-21T11:25:17.884Z,14.90
2019-02-21T11:27:47.076Z,14.53
2019-02-21T11:30:17.692Z,15.13
2019-02-21T11:32:46.880Z,15.20
2019-02-21T11:35:15.973Z,15.90
2019-02-21T11:37:47.096Z,15.40
2019-02-21T11:40:16.906Z,21.83
2019-02-21T11:42:46.632Z,15.93
2019-02-21T11:45:16.556Z,16.03
2019-02-21T11:47:45.689Z,15.30
2019-02-21T11:50:16.178Z,17.63
2019-02-21T11:52:45.635Z,16.27
2019-02-21T11:55:17.745Z,16.13
2019-02-21T11:57:46.945Z,15.93
2019-02-21T12:00:39.149Z,16.77
2019-02-21T12:03:08.298Z,15.33
2019-02-21T12:05:37.402Z,14.37
2019-02-21T12:08:06.525Z,15.97
2019-02-21T12:10:35.655Z,19.80
2019-02-21T12:13:05.094Z,82.97
2019-02-21T12:15:34.395Z,52.17
2019-02-21T12:18:03.570Z,14.93
2019-02-21T12:20:32.664Z,18.13
2019-02-21T12:23:01.783Z,49.13
2019-02-21T12:25:31.289Z,16.10
2019-02-21T12:28:00.414Z,50.07
2019-02-21T12:30:29.611Z,16.03
2019-02-21T12:32:58.741Z,19.63
2019-02-21T12:35:29.805Z,18.63
2019-02-21T12:37:59.036Z,15.80
2019-02-21T12:40:28.145Z,17.40
2019-02-21T12:42:57.467Z,17.30
2019-02-21T12:45:26.573Z,29.93
2019-02-21T12:47:55.705Z,33.80
2019-02-21T12:50:24.803Z,16.87
2019-02-21T12:52:54.055Z,17.57
2019-02-21T12:55:29.353Z,16.53
2019-02-21T12:57:54.056Z,16.07
2019-02-21T13:00:23.452Z,30.03
2019-02-21T13:02:52.569Z,16.67
2019-02-21T13:05:22.071Z,19.13
2019-02-21T13:07:51.195Z,17.80
2019-02-21T13:10:22.969Z,16.90
2019-02-21T13:12:52.213Z,18.50
2019-02-21T13:15:24.923Z,17.33
2019-02-21T13:17:54.012Z,19.00
2019-02-21T13:20:23.237Z,20.73
2019-02-21T13:22:52.976Z,19.53
2019-02-21T13:25:22.073Z,17.23
2019-02-21T13:27:51.216Z,17.07
2019-02-21T13:30:20.323Z,16.27
2019-02-21T13:32:49.495Z,17.30
2019-02-21T13:35:18.613Z,16.27
2019-02-21T13:37:48.824Z,16.87
2019-02-21T13:40:20.937Z,16.77
2019-02-21T13:42:49.420Z,16.93
2019-02-21T13:45:18.865Z,17.60
2019-02-21T13:47:48.003Z,17.40
2019-02-21T13:50:17.638Z,17.97
2019-02-21T13:52:47.146Z,17.70
2019-02-21T13:55:16.583Z,17.43
2019-02-21T13:57:45.741Z,17.23
2019-02-21T14:00:17.150Z,16.87
2019-02-21T14:02:46.839Z,19.17
2019-02-21T14:05:16.005Z,17.47
2019-02-21T14:07:45.337Z,17.73
2019-02-21T14:10:15.184Z,18.60
2019-02-21T14:12:44.339Z,16.90
2019-02-21T14:15:16.010Z,17.63
2019-02-21T14:17:46.681Z,16.70
2019-02-21T14:20:16.544Z,17.67
2019-02-21T14:22:45.713Z,17.50
2019-02-21T14:25:15.080Z,17.30
2019-02-21T14:27:44.257Z,17.40
2019-02-21T14:30:15.616Z,17.70
2019-02-21T14:32:45.961Z,16.37
2019-02-21T14:35:16.025Z,15.37
2019-02-21T14:37:45.147Z,15.60
2019-02-21T14:40:14.574Z,16.27
2019-02-21T14:42:45.114Z,15.07
2019-02-21T14:45:16.186Z,14.43
2019-02-21T14:47:45.333Z,14.17
2019-02-21T14:50:16.110Z,15.10
2019-02-21T14:52:45.556Z,15.17
2019-02-21T14:55:15.283Z,14.57
2019-02-21T14:57:44.409Z,13.37
2019-02-21T15:00:19.816Z,12.70
2019-02-21T15:02:48.953Z,12.60
2019-02-21T15:05:19.143Z,12.80
2019-02-21T15:07:48.821Z,13.33
2019-02-21T15:10:18.508Z,12.90
2019-02-21T15:12:48.373Z,14.03
2019-02-21T15:15:18.258Z,18.40
2019-02-21T15:17:47.773Z,14.87
2019-02-21T15:20:17.378Z,14.80
2019-02-21T15:22:46.905Z,14.80
2019-02-21T15:25:16.045Z,15.60
2019-02-21T15:27:45.138Z,21.20
2019-02-21T15:30:16.343Z,18.47
2019-02-21T15:32:45.436Z,19.43
2019-02-21T15:35:14.896Z,17.70
2019-02-21T15:37:45.207Z,17.83
2019-02-21T15:40:14.678Z,16.70
2019-02-21T15:42:43.870Z,17.47
2019-02-21T15:45:23.016Z,16.37
2019-02-21T15:47:45.890Z,18.70
2019-02-21T15:50:15.181Z,19.53
2019-02-21T15:52:44.647Z,18.60
2019-02-21T15:55:14.733Z,18.20
2019-02-21T15:57:43.869Z,18.67
2019-02-21T16:00:15.182Z,17.93
2019-02-21T16:02:44.271Z,18.00
2019-02-21T16:05:13.797Z,18.53
2019-02-21T16:07:42.914Z,17.50
2019-02-21T16:10:14.293Z,16.53
2019-02-21T16:12:43.886Z,16.87
2019-02-21T16:15:16.165Z,16.63
2019-02-21T16:17:44.489Z,15.00
2019-02-21T16:20:14.478Z,16.07
2019-02-21T16:22:44.157Z,15.10
2019-02-21T16:25:15.476Z,15.83
2019-02-21T16:27:44.574Z,15.47
2019-02-21T16:30:14.267Z,15.30
2019-02-21T16:32:43.522Z,15.50
2019-02-21T16:35:12.779Z,15.40
2019-02-21T16:37:42.120Z,15.27
2019-02-21T16:40:12.406Z,14.43
2019-02-21T16:42:41.633Z,15.47
2019-02-21T16:45:12.029Z,15.27
2019-02-21T16:47:41.129Z,14.73
2019-02-21T16:50:11.160Z,15.37
2019-02-21T16:52:40.300Z,15.33
2019-02-21T16:55:11.480Z,15.77
2019-02-21T16:57:40.617Z,16.00
2019-02-21T17:00:11.205Z,16.70
2019-02-21T17:02:40.312Z,15.97
2019-02-21T17:05:09.859Z,16.50
2019-02-21T17:07:38.968Z,17.13
2019-02-21T17:10:08.611Z,16.67
2019-02-21T17:12:37.722Z,18.40
2019-02-21T17:15:08.131Z,19.63
2019-02-21T17:17:37.532Z,19.90
2019-02-21T17:20:08.244Z,18.50
2019-02-21T17:22:37.390Z,32.73
2019-02-21T17:25:06.951Z,20.33
2019-02-21T17:27:36.101Z,21.40
2019-02-21T17:30:05.750Z,19.80
2019-02-21T17:32:34.862Z,21.80
2019-02-21T17:35:04.452Z,19.83
2019-02-21T17:37:33.562Z,20.53
2019-02-21T17:40:02.775Z,20.13
2019-02-21T17:42:31.926Z,20.37
2019-02-21T17:45:03.301Z,20.20
2019-02-21T17:47:36.142Z,20.60
2019-02-21T17:50:06.057Z,20.43
2019-02-21T17:52:36.107Z,20.17
2019-02-21T17:55:05.655Z,20.33
2019-02-21T17:57:36.931Z,21.50
2019-02-21T18:00:07.922Z,20.50
2019-02-21T18:02:37.490Z,22.93
2019-02-21T18:05:06.926Z,20.87
2019-02-21T18:07:36.798Z,22.20
2019-02-21T18:10:07.739Z,20.83
2019-02-21T18:12:36.978Z,21.83
2019-02-21T18:15:06.384Z,20.97
2019-02-21T18:17:35.516Z,21.80
2019-02-21T18:20:05.066Z,22.03
2019-02-21T18:22:34.167Z,21.67
2019-02-21T18:25:03.824Z,20.70
2019-02-21T18:27:34.683Z,22.60
2019-02-21T18:30:04.020Z,21.57
2019-02-21T18:32:33.119Z,23.67
2019-02-21T18:35:02.307Z,21.97
2019-02-21T18:37:31.401Z,21.97
2019-02-21T18:40:00.548Z,22.40
2019-02-21T18:42:29.665Z,22.33
2019-02-21T18:44:58.756Z,22.10
2019-02-21T18:47:28.199Z,22.30
2019-02-21T18:49:57.431Z,22.93
2019-02-21T18:52:26.585Z,23.10
2019-02-21T18:54:55.728Z,23.70
2019-02-21T18:57:25.128Z,23.50
2019-02-21T18:59:54.439Z,23.30
2019-02-21T19:02:23.638Z,23.57
2019-02-21T19:04:52.907Z,23.20
2019-02-21T19:07:22.102Z,22.63
2019-02-21T19:09:51.275Z,23.03
2019-02-21T19:12:20.445Z,23.93
2019-02-21T19:14:50.155Z,22.97
2019-02-21T19:17:19.242Z,22.83
2019-02-21T19:19:48.367Z,23.97
2019-02-21T19:22:18.102Z,23.80
2019-02-21T19:24:47.343Z,24.70
2019-02-21T19:27:17.255Z,28.67
2019-02-21T19:29:46.731Z,27.87
2019-02-21T19:32:15.956Z,29.07
2019-02-21T19:34:45.131Z,25.97
2019-02-21T19:37:14.451Z,34.47
2019-02-21T19:39:44.277Z,26.30
2019-02-21T19:42:13.490Z,27.20
2019-02-21T19:44:42.678Z,27.13
2019-02-21T19:47:11.884Z,27.73
2019-02-21T19:49:41.468Z,27.33
2019-02-21T19:52:10.660Z,28.43
2019-02-21T19:54:39.855Z,28.60
2019-02-21T19:57:09.010Z,27.83
2019-02-21T19:59:38.373Z,25.93
2019-02-21T20:02:08.169Z,26.80
2019-02-21T20:04:37.318Z,29.33
2019-02-21T20:07:06.562Z,29.47
2019-02-21T20:09:35.728Z,29.20
2019-02-21T20:12:05.033Z,27.80
2019-02-21T20:14:34.187Z,28.53
2019-02-21T20:17:03.334Z,29.67
2019-02-21T20:19:32.659Z,31.47
2019-02-21T20:22:01.754Z,29.40
2019-02-21T20:24:30.898Z,30.63
2019-02-21T20:27:00.508Z,29.27
2019-02-21T20:29:29.696Z,30.10
2019-02-21T20:31:59.074Z,30.77
2019-02-21T20:34:28.295Z,32.20
2019-02-21T20:36:57.556Z,30.00
2019-02-21T20:39:26.931Z,30.97
2019-02-21T20:41:56.318Z,29.83
2019-02-21T20:44:25.438Z,30.13
2019-02-21T20:46:54.571Z,31.47
2019-02-21T20:49:23.880Z,30.73
2019-02-21T20:51:53.063Z,30.23
2019-02-21T20:54:22.336Z,31.53
2019-02-21T20:56:51.612Z,31.70
2019-02-21T20:59:20.722Z,33.27
2019-02-21T21:01:50.236Z,33.10
2019-02-21T21:04:19.356Z,33.00
2019-02-21T21:06:48.522Z,32.50
2019-02-21T21:09:17.778Z,33.73
2019-02-21T21:11:46.921Z,34.47
2019-02-21T21:14:16.007Z,35.40
2019-02-21T21:16:46.252Z,38.93
2019-02-21T21:19:15.423Z,34.97
2019-02-21T21:21:44.739Z,36.70
2019-02-21T21:24:14.334Z,36.07
2019-02-21T21:26:43.873Z,37.20
2019-02-21T21:29:12.979Z,37.40
2019-02-21T21:31:42.105Z,36.10
2019-02-21T21:34:11.212Z,37.20
2019-02-21T21:36:40.348Z,40.43
2019-02-21T21:39:09.847Z,37.10
2019-02-21T21:41:39.063Z,39.20
2019-02-21T21:44:08.254Z,40.73
2019-02-21T21:46:37.375Z,41.03
2019-02-21T21:49:06.532Z,39.77
2019-02-21T21:51:35.631Z,39.97
2019-02-21T21:54:04.801Z,42.03
2019-02-21T21:56:33.924Z,43.03
2019-02-21T21:59:03.084Z,42.77
2019-02-21T22:01:32.242Z,42.47
2019-02-21T22:04:01.347Z,44.93
2019-02-21T22:06:30.511Z,44.40
2019-02-21T22:09:04.644Z,45.03
2019-02-21T22:11:31.244Z,45.33
2019-02-21T22:14:00.681Z,45.53
2019-02-21T22:16:29.832Z,45.40
2019-02-21T22:18:58.940Z,47.63
2019-02-21T22:21:28.295Z,46.50
2019-02-21T22:23:57.452Z,47.93
2019-02-21T22:26:26.601Z,46.97
2019-02-21T22:28:55.724Z,47.80
2019-02-21T22:31:24.883Z,47.13
2019-02-21T22:33:54.180Z,47.40
2019-02-21T22:36:23.336Z,49.20
2019-02-21T22:38:52.447Z,49.17
2019-02-21T22:41:21.599Z,46.93
2019-02-21T22:43:50.718Z,47.87
2019-02-21T22:46:19.854Z,49.37
2019-02-21T22:48:49.145Z,48.27
2019-02-21T22:51:18.351Z,49.10
2019-02-21T22:53:47.446Z,46.73
2019-02-21T22:56:16.606Z,49.87
2019-02-21T22:58:45.802Z,49.63
2019-02-21T23:01:42.386Z,49.03
2019-02-21T23:04:48.605Z,52.17
2019-02-21T23:08:04.810Z,52.57
2019-02-21T23:10:33.943Z,52.97
2019-02-21T23:13:03.227Z,52.97
2019-02-21T23:15:32.358Z,54.00
2019-02-21T23:18:01.646Z,52.60
2019-02-21T23:20:30.756Z,53.50
2019-02-21T23:22:59.897Z,55.03
2019-02-21T23:25:29.024Z,54.27
2019-02-21T23:27:58.367Z,54.33
2019-02-21T23:30:27.475Z,53.80
2019-02-21T23:32:56.661Z,53.33
2019-02-21T23:35:25.789Z,52.83
2019-02-21T23:37:55.268Z,54.43
2019-02-21T23:40:24.396Z,54.37
2019-02-21T23:43:20.581Z,53.03
2019-02-21T23:45:49.704Z,51.33
2019-02-21T23:48:18.913Z,52.80
2019-02-21T23:50:48.023Z,52.20
2019-02-21T23:53:17.173Z,48.97
2019-02-21T23:55:46.285Z,51.03
2019-02-21T23:58:15.501Z,51.77
